Terminal Aerodrome Forecast
Issued by NWS

Home | Current Version | Previous Version | Text Only | Print | Product List | Glossary On
Versions: 1 2 3 4 5 6 7 8 9 10 11 12 13 14 15 16
000
FTUS43 KJKL 182337
TAFSME
TAF
KSME 182337Z 1900/1924 14004KT P6SM FEW250
     FM190300 17004KT P6SM VCSH BKN050 BKN200 WS020/20040KT
     FM190800 18007KT P6SM -SHRA OVC025 WS020/21040KT
     FM191200 18007KT 6SM -SHRA BR BKN045 WS020/22040KT
     FM191400 18010G18KT P6SM BKN050=

USA.gov is the U.S. government's official web portal to all federal, state and local government web resources and services.